sensor_id;sensor_type;location;lat;lon;timestamp;pressure;altitude;pressure_sealevel;temperature;humidity
10127;BME280;13080;42.608;23.362;2023-04-28T00:02:02;152109.66;;;3.98;63.12
10127;BME280;13080;42.608;23.362;2023-04-28T00:04:29;152113.53;;;4.00;61.75
10127;BME280;13080;42.608;23.362;2023-04-28T00:06:57;152113.53;;;4.00;63.38
10127;BME280;13080;42.608;23.362;2023-04-28T00:09:23;152108.38;;;3.98;62.95
10127;BME280;13080;42.608;23.362;2023-04-28T00:11:50;152107.09;;;3.97;62.43
10127;BME280;13080;42.608;23.362;2023-04-28T00:14:17;152112.25;;;3.99;63.17
10127;BME280;13080;42.608;23.362;2023-04-28T00:16:44;152112.25;;;3.99;62.42
10127;BME280;13080;42.608;23.362;2023-04-28T00:19:10;152092.84;;;3.91;62.76
10127;BME280;13080;42.608;23.362;2023-04-28T00:21:37;152074.78;;;3.84;63.63
10127;BME280;13080;42.608;23.362;2023-04-28T00:24:06;152091.56;;;3.91;62.85
10127;BME280;13080;42.608;23.362;2023-04-28T00:26:32;152086.41;;;3.89;63.13
10127;BME280;13080;42.608;23.362;2023-04-28T00:28:59;152069.59;;;3.82;62.73
10127;BME280;13080;42.608;23.362;2023-04-28T00:31:26;152074.78;;;3.84;63.24
10127;BME280;13080;42.608;23.362;2023-04-28T00:33:53;152064.44;;;3.80;64.13
10127;BME280;13080;42.608;23.362;2023-04-28T00:36:19;152073.50;;;3.84;62.93
10127;BME280;13080;42.608;23.362;2023-04-28T00:38:46;152067.03;;;3.81;62.88
10127;BME280;13080;42.608;23.362;2023-04-28T00:41:14;152055.38;;;3.77;63.54
10127;BME280;13080;42.608;23.362;2023-04-28T00:43:45;152033.44;;;3.68;63.67
10127;BME280;13080;42.608;23.362;2023-04-28T00:46:19;152023.09;;;3.64;64.27
10127;BME280;13080;42.608;23.362;2023-04-28T00:48:46;151999.88;;;3.54;65.19
10127;BME280;13080;42.608;23.362;2023-04-28T00:51:13;151979.19;;;3.46;66.01
10127;BME280;13080;42.608;23.362;2023-04-28T00:53:40;151966.28;;;3.41;66.01
10127;BME280;13080;42.608;23.362;2023-04-28T00:56:08;151932.69;;;3.28;66.14
10127;BME280;13080;42.608;23.362;2023-04-28T00:58:36;151932.69;;;3.28;64.92
10127;BME280;13080;42.608;23.362;2023-04-28T01:01:04;151926.25;;;3.25;65.50
10127;BME280;13080;42.608;23.362;2023-04-28T01:03:33;151896.53;;;3.13;66.13
10127;BME280;13080;42.608;23.362;2023-04-28T01:06:00;151869.44;;;3.03;66.21
10127;BME280;13080;42.608;23.362;2023-04-28T01:08:29;151842.31;;;2.92;66.40
10127;BME280;13080;42.608;23.362;2023-04-28T01:10:56;151855.22;;;2.97;65.92
10127;BME280;13080;42.608;23.362;2023-04-28T01:13:22;151848.78;;;2.95;66.00
10127;BME280;13080;42.608;23.362;2023-04-28T01:15:51;151857.78;;;2.98;66.34
10127;BME280;13080;42.608;23.362;2023-04-28T01:18:17;151835.88;;;2.89;66.83
10127;BME280;13080;42.608;23.362;2023-04-28T01:20:44;151816.47;;;2.82;66.40
10127;BME280;13080;42.608;23.362;2023-04-28T01:23:11;151804.88;;;2.77;66.76
10127;BME280;13080;42.608;23.362;2023-04-28T01:25:39;151819.09;;;2.83;65.61
10127;BME280;13080;42.608;23.362;2023-04-28T01:28:08;151816.47;;;2.82;65.44
10127;BME280;13080;42.608;23.362;2023-04-28T01:30:35;151800.97;;;2.76;66.67
10127;BME280;13080;42.608;23.362;2023-04-28T01:33:02;151810.03;;;2.79;65.70
10127;BME280;13080;42.608;23.362;2023-04-28T01:35:29;151800.97;;;2.76;65.21
10127;BME280;13080;42.608;23.362;2023-04-28T01:37:56;151785.53;;;2.69;67.25
10127;BME280;13080;42.608;23.362;2023-04-28T01:40:22;151784.19;;;2.69;65.45
10127;BME280;13080;42.608;23.362;2023-04-28T01:42:50;151781.63;;;2.68;65.27
10127;BME280;13080;42.608;23.362;2023-04-28T01:45:17;151759.69;;;2.59;66.35
10127;BME280;13080;42.608;23.362;2023-04-28T01:47:44;151757.13;;;2.58;67.13
10127;BME280;13080;42.608;23.362;2023-04-28T01:50:10;151749.38;;;2.55;66.75
10127;BME280;13080;42.608;23.362;2023-04-28T01:52:37;151757.13;;;2.58;65.39
10127;BME280;13080;42.608;23.362;2023-04-28T01:55:05;151745.53;;;2.54;66.41
10127;BME280;13080;42.608;23.362;2023-04-28T01:57:31;151741.63;;;2.52;66.83
10127;BME280;13080;42.608;23.362;2023-04-28T02:00:01;151737.75;;;2.50;67.30
10127;BME280;13080;42.608;23.362;2023-04-28T02:02:29;151722.31;;;2.44;66.96
10127;BME280;13080;42.608;23.362;2023-04-28T02:04:56;151715.81;;;2.42;66.59
10127;BME280;13080;42.608;23.362;2023-04-28T02:07:23;151748.09;;;2.55;66.61
10127;BME280;13080;42.608;23.362;2023-04-28T02:09:50;151739.03;;;2.51;66.88
10127;BME280;13080;42.608;23.362;2023-04-28T02:12:16;151740.34;;;2.52;67.20
10127;BME280;13080;42.608;23.362;2023-04-28T02:14:43;151717.13;;;2.42;67.76
10127;BME280;13080;42.608;23.362;2023-04-28T02:17:11;151736.47;;;2.50;67.44
10127;BME280;13080;42.608;23.362;2023-04-28T02:19:38;151732.59;;;2.48;67.91
10127;BME280;13080;42.608;23.362;2023-04-28T02:22:05;151710.66;;;2.40;68.62
10127;BME280;13080;42.608;23.362;2023-04-28T02:24:34;151720.97;;;2.44;67.86
10127;BME280;13080;42.608;23.362;2023-04-28T02:27:01;151717.13;;;2.42;68.12
10127;BME280;13080;42.608;23.362;2023-04-28T02:29:29;151713.25;;;2.41;68.04
10127;BME280;13080;42.608;23.362;2023-04-28T02:31:56;151710.66;;;2.40;68.04
10127;BME280;13080;42.608;23.362;2023-04-28T02:34:24;151708.09;;;2.39;67.97
10127;BME280;13080;42.608;23.362;2023-04-28T02:36:51;151680.97;;;2.28;68.20
10127;BME280;13080;42.608;23.362;2023-04-28T02:39:18;151675.81;;;2.26;68.77
10127;BME280;13080;42.608;23.362;2023-04-28T02:41:46;151686.16;;;2.30;68.60
10127;BME280;13080;42.608;23.362;2023-04-28T02:44:13;151674.53;;;2.25;68.72
10127;BME280;13080;42.608;23.362;2023-04-28T02:46:39;151690.03;;;2.32;68.68
10127;BME280;13080;42.608;23.362;2023-04-28T02:49:06;151693.88;;;2.33;68.23
10127;BME280;13080;42.608;23.362;2023-04-28T02:51:34;151684.88;;;2.29;69.17
10127;BME280;13080;42.608;23.362;2023-04-28T02:54:01;151674.53;;;2.25;69.27
10127;BME280;13080;42.608;23.362;2023-04-28T02:56:28;151677.13;;;2.26;69.05
10127;BME280;13080;42.608;23.362;2023-04-28T02:58:55;151687.41;;;2.31;68.73
10127;BME280;13080;42.608;23.362;2023-04-28T03:01:22;151674.53;;;2.25;67.93
10127;BME280;13080;42.608;23.362;2023-04-28T03:03:49;151670.66;;;2.24;69.14
10127;BME280;13080;42.608;23.362;2023-04-28T03:06:15;151662.94;;;2.21;68.78
10127;BME280;13080;42.608;23.362;2023-04-28T03:08:43;151651.31;;;2.16;68.84
10127;BME280;13080;42.608;23.362;2023-04-28T03:11:10;151651.31;;;2.16;69.02
10127;BME280;13080;42.608;23.362;2023-04-28T03:13:37;151646.16;;;2.14;69.02
10127;BME280;13080;42.608;23.362;2023-04-28T03:16:05;151652.59;;;2.17;68.27
10127;BME280;13080;42.608;23.362;2023-04-28T03:18:32;151643.59;;;2.13;68.08
10127;BME280;13080;42.608;23.362;2023-04-28T03:20:59;151655.19;;;2.18;67.86
10127;BME280;13080;42.608;23.362;2023-04-28T03:23:25;151668.09;;;2.23;66.49
10127;BME280;13080;42.608;23.362;2023-04-28T03:25:54;151668.09;;;2.23;67.96
10127;BME280;13080;42.608;23.362;2023-04-28T03:28:20;151655.19;;;2.18;68.00
10127;BME280;13080;42.608;23.362;2023-04-28T03:30:47;151664.22;;;2.21;66.99
10127;BME280;13080;42.608;23.362;2023-04-28T03:33:14;151684.88;;;2.29;66.81
10127;BME280;13080;42.608;23.362;2023-04-28T03:35:40;151668.09;;;2.23;67.08
10127;BME280;13080;42.608;23.362;2023-04-28T03:38:10;151665.47;;;2.22;67.68
10127;BME280;13080;42.608;23.362;2023-04-28T03:40:37;151665.47;;;2.22;66.77
10127;BME280;13080;42.608;23.362;2023-04-28T03:43:05;151671.97;;;2.24;66.59
10127;BME280;13080;42.608;23.362;2023-04-28T03:45:32;151695.19;;;2.34;65.90
10127;BME280;13080;42.608;23.362;2023-04-28T03:47:59;151723.59;;;2.45;66.28
10127;BME280;13080;42.608;23.362;2023-04-28T03:50:25;151717.13;;;2.42;65.21
10127;BME280;13080;42.608;23.362;2023-04-28T03:52:52;151741.63;;;2.52;65.97
10127;BME280;13080;42.608;23.362;2023-04-28T03:55:19;151760.97;;;2.60;65.02
10127;BME280;13080;42.608;23.362;2023-04-28T03:57:46;151767.47;;;2.62;64.01
10127;BME280;13080;42.608;23.362;2023-04-28T04:00:14;151816.47;;;2.82;63.68
10127;BME280;13080;42.608;23.362;2023-04-28T04:02:41;151820.38;;;2.83;63.85
10127;BME280;13080;42.608;23.362;2023-04-28T04:05:08;151837.16;;;2.90;63.37
10127;BME280;13080;42.608;23.362;2023-04-28T04:07:35;151835.88;;;2.89;63.79
10127;BME280;13080;42.608;23.362;2023-04-28T04:10:02;151861.66;;;3.00;63.79
10127;BME280;13080;42.608;23.362;2023-04-28T04:12:29;151874.56;;;3.05;63.40
10127;BME280;13080;42.608;23.362;2023-04-28T04:14:56;151891.34;;;3.11;62.71
10127;BME280;13080;42.608;23.362;2023-04-28T04:17:24;151926.25;;;3.25;61.86
10127;BME280;13080;42.608;23.362;2023-04-28T04:19:51;151949.50;;;3.35;61.35
10127;BME280;13080;42.608;23.362;2023-04-28T04:22:18;151958.50;;;3.38;61.09
10127;BME280;13080;42.608;23.362;2023-04-28T04:24:45;151977.91;;;3.46;61.14
10127;BME280;13080;42.608;23.362;2023-04-28T04:27:12;152005.03;;;3.57;60.67
10127;BME280;13080;42.608;23.362;2023-04-28T04:29:39;152014.03;;;3.60;60.81
10127;BME280;13080;42.608;23.362;2023-04-28T04:32:06;152039.91;;;3.70;60.41
10127;BME280;13080;42.608;23.362;2023-04-28T04:34:34;152054.09;;;3.76;60.72
10127;BME280;13080;42.608;23.362;2023-04-28T04:37:01;152078.66;;;3.86;59.16
10127;BME280;13080;42.608;23.362;2023-04-28T04:39:27;152096.75;;;3.93;59.31
10127;BME280;13080;42.608;23.362;2023-04-28T04:41:54;152105.75;;;3.96;59.36
10127;BME280;13080;42.608;23.362;2023-04-28T04:44:22;152108.38;;;3.98;59.61
10127;BME280;13080;42.608;23.362;2023-04-28T04:46:48;152116.09;;;4.01;58.90
10127;BME280;13080;42.608;23.362;2023-04-28T04:49:15;152126.44;;;4.05;59.37
10127;BME280;13080;42.608;23.362;2023-04-28T04:51:43;152158.75;;;4.18;59.69
10127;BME280;13080;42.608;23.362;2023-04-28T04:54:10;152180.75;;;4.26;58.34
10127;BME280;13080;42.608;23.362;2023-04-28T04:56:37;152183.31;;;4.27;58.13
10127;BME280;13080;42.608;23.362;2023-04-28T04:59:04;152192.38;;;4.31;59.05
10127;BME280;13080;42.608;23.362;2023-04-28T05:01:30;152218.19;;;4.41;59.60
10127;BME280;13080;42.608;23.362;2023-04-28T05:03:57;152236.28;;;4.48;59.90
10127;BME280;13080;42.608;23.362;2023-04-28T05:06:24;152259.59;;;4.57;58.66
10127;BME280;13080;42.608;23.362;2023-04-28T05:08:52;152255.69;;;4.56;60.09
10127;BME280;13080;42.608;23.362;2023-04-28T05:11:20;152293.19;;;4.71;60.99
10127;BME280;13080;42.608;23.362;2023-04-28T05:13:47;152322.94;;;4.83;59.56
10127;BME280;13080;42.608;23.362;2023-04-28T05:16:14;152325.50;;;4.84;58.22
10127;BME280;13080;42.608;23.362;2023-04-28T05:18:41;152347.47;;;4.92;58.05
10127;BME280;13080;42.608;23.362;2023-04-28T05:21:07;152328.09;;;4.85;58.48
10127;BME280;13080;42.608;23.362;2023-04-28T05:23:36;152365.56;;;4.99;58.62
10127;BME280;13080;42.608;23.362;2023-04-28T05:26:04;152350.09;;;4.93;59.39
10127;BME280;13080;42.608;23.362;2023-04-28T05:28:30;152365.56;;;4.99;58.69
10127;BME280;13080;42.608;23.362;2023-04-28T05:30:57;152357.81;;;4.96;58.76
10127;BME280;13080;42.608;23.362;2023-04-28T05:33:24;152378.53;;;5.05;59.59
10127;BME280;13080;42.608;23.362;2023-04-28T05:35:51;152359.09;;;4.97;59.35
10127;BME280;13080;42.608;23.362;2023-04-28T05:38:18;152391.44;;;5.10;59.38
10127;BME280;13080;42.608;23.362;2023-04-28T05:40:44;152408.25;;;5.16;58.24
10127;BME280;13080;42.608;23.362;2023-04-28T05:43:12;152425.09;;;5.23;58.11
10127;BME280;13080;42.608;23.362;2023-04-28T05:45:39;152460.00;;;5.37;57.86
10127;BME280;13080;42.608;23.362;2023-04-28T05:48:06;152413.44;;;5.18;57.80
10127;BME280;13080;42.608;23.362;2023-04-28T05:50:33;152450.91;;;5.33;57.32
10127;BME280;13080;42.608;23.362;2023-04-28T05:52:59;152428.97;;;5.25;55.31
10127;BME280;13080;42.608;23.362;2023-04-28T05:55:26;152436.72;;;5.28;56.60
10127;BME280;13080;42.608;23.362;2023-04-28T05:57:53;152469.06;;;5.40;58.46
10127;BME280;13080;42.608;23.362;2023-04-28T06:00:21;152461.28;;;5.37;57.38
10127;BME280;13080;42.608;23.362;2023-04-28T06:02:48;152474.19;;;5.42;56.18
10127;BME280;13080;42.608;23.362;2023-04-28T06:05:15;152505.28;;;5.55;57.15
10127;BME280;13080;42.608;23.362;2023-04-28T06:07:42;152523.38;;;5.62;56.03
10127;BME280;13080;42.608;23.362;2023-04-28T06:10:09;152447.06;;;5.32;56.42
10127;BME280;13080;42.608;23.362;2023-04-28T06:12:37;152514.34;;;5.58;55.17
10127;BME280;13080;42.608;23.362;2023-04-28T06:15:05;152500.09;;;5.53;55.75
10127;BME280;13080;42.608;23.362;2023-04-28T06:17:34;152535.03;;;5.67;55.84
10127;BME280;13080;42.608;23.362;2023-04-28T06:20:01;152569.94;;;5.80;54.76
10127;BME280;13080;42.608;23.362;2023-04-28T06:22:29;152524.66;;;5.62;55.83
10127;BME280;13080;42.608;23.362;2023-04-28T06:24:56;152553.13;;;5.74;54.83
10127;BME280;13080;42.608;23.362;2023-04-28T06:27:22;152550.56;;;5.73;54.24
10127;BME280;13080;42.608;23.362;2023-04-28T06:29:49;152571.28;;;5.81;54.21
10127;BME280;13080;42.608;23.362;2023-04-28T06:32:16;152602.31;;;5.93;55.87
10127;BME280;13080;42.608;23.362;2023-04-28T06:34:44;152617.91;;;5.99;53.11
10127;BME280;13080;42.608;23.362;2023-04-28T06:37:11;152598.41;;;5.92;53.01
10127;BME280;13080;42.608;23.362;2023-04-28T06:39:37;152611.44;;;5.97;53.47
10127;BME280;13080;42.608;23.362;2023-04-28T06:42:04;152646.38;;;6.11;52.47
10127;BME280;13080;42.608;23.362;2023-04-28T06:44:31;152686.50;;;6.27;54.03
10127;BME280;13080;42.608;23.362;2023-04-28T06:46:58;152705.88;;;6.34;51.90
10127;BME280;13080;42.608;23.362;2023-04-28T06:49:25;152694.25;;;6.30;52.21
10127;BME280;13080;42.608;23.362;2023-04-28T06:51:54;152725.34;;;6.42;52.44
10127;BME280;13080;42.608;23.362;2023-04-28T06:54:20;152709.78;;;6.36;54.66
10127;BME280;13080;42.608;23.362;2023-04-28T06:56:47;152771.94;;;6.60;53.58
10127;BME280;13080;42.608;23.362;2023-04-28T06:59:14;152787.47;;;6.66;53.66
10127;BME280;13080;42.608;23.362;2023-04-28T07:01:40;152839.28;;;6.87;53.30
10127;BME280;13080;42.608;23.362;2023-04-28T07:04:07;152926.03;;;7.21;52.41
10127;BME280;13080;42.608;23.362;2023-04-28T07:06:34;152939.03;;;7.26;50.68
10127;BME280;13080;42.608;23.362;2023-04-28T07:09:02;152853.50;;;6.93;50.48
10127;BME280;13080;42.608;23.362;2023-04-28T07:11:29;152872.97;;;7.00;50.78
10127;BME280;13080;42.608;23.362;2023-04-28T07:13:57;152907.91;;;7.14;53.10
10127;BME280;13080;42.608;23.362;2023-04-28T07:16:24;152939.03;;;7.26;50.60
10127;BME280;13080;42.608;23.362;2023-04-28T07:18:51;152927.31;;;7.22;50.14
10127;BME280;13080;42.608;23.362;2023-04-28T07:21:18;152936.41;;;7.25;51.17
10127;BME280;13080;42.608;23.362;2023-04-28T07:23:46;152976.56;;;7.41;50.53
10127;BME280;13080;42.608;23.362;2023-04-28T07:26:14;152983.03;;;7.44;49.69
10127;BME280;13080;42.608;23.362;2023-04-28T07:28:42;152948.06;;;7.30;50.34
10127;BME280;13080;42.608;23.362;2023-04-28T07:31:11;152923.47;;;7.20;51.46
10127;BME280;13080;42.608;23.362;2023-04-28T07:33:37;152856.13;;;6.94;50.53
10127;BME280;13080;42.608;23.362;2023-04-28T07:36:05;152932.50;;;7.24;52.38
10127;BME280;13080;42.608;23.362;2023-04-28T07:38:32;152999.88;;;7.50;50.81
10127;BME280;13080;42.608;23.362;2023-04-28T07:40:59;152983.03;;;7.44;50.10
10127;BME280;13080;42.608;23.362;2023-04-28T07:43:28;152954.53;;;7.33;49.20
10127;BME280;13080;42.608;23.362;2023-04-28T07:45:54;152951.97;;;7.32;49.37
10127;BME280;13080;42.608;23.362;2023-04-28T07:48:21;153015.44;;;7.57;49.21
10127;BME280;13080;42.608;23.362;2023-04-28T07:50:48;152984.38;;;7.44;47.66
10127;BME280;13080;42.608;23.362;2023-04-28T07:53:15;153058.25;;;7.74;47.65
10127;BME280;13080;42.608;23.362;2023-04-28T07:55:41;153068.56;;;7.78;48.49
10127;BME280;13080;42.608;23.362;2023-04-28T07:58:10;153125.59;;;8.00;46.07
10127;BME280;13080;42.608;23.362;2023-04-28T08:00:38;153068.56;;;7.78;47.86
10127;BME280;13080;42.608;23.362;2023-04-28T08:03:05;153037.47;;;7.65;48.78
10127;BME280;13080;42.608;23.362;2023-04-28T08:05:32;153078.94;;;7.82;48.41
10127;BME280;13080;42.608;23.362;2023-04-28T08:07:58;153098.41;;;7.89;47.69
10127;BME280;13080;42.608;23.362;2023-04-28T08:10:25;153110.06;;;7.94;47.11
10127;BME280;13080;42.608;23.362;2023-04-28T08:12:52;153130.78;;;8.02;46.38
10127;BME280;13080;42.608;23.362;2023-04-28T08:15:19;153151.53;;;8.10;45.77
10127;BME280;13080;42.608;23.362;2023-04-28T08:17:47;153158.00;;;8.13;45.33
10127;BME280;13080;42.608;23.362;2023-04-28T08:20:14;153185.25;;;8.24;46.26
10127;BME280;13080;42.608;23.362;2023-04-28T08:22:43;153212.47;;;8.35;46.22
10127;BME280;13080;42.608;23.362;2023-04-28T08:25:10;153269.59;;;8.57;46.13
10127;BME280;13080;42.608;23.362;2023-04-28T08:27:37;153322.72;;;8.78;45.11
10127;BME280;13080;42.608;23.362;2023-04-28T08:30:06;153334.41;;;8.83;43.54
10127;BME280;13080;42.608;23.362;2023-04-28T08:32:33;153374.63;;;8.99;43.91
10127;BME280;13080;42.608;23.362;2023-04-28T08:35:01;153352.56;;;8.90;45.39
10127;BME280;13080;42.608;23.362;2023-04-28T08:37:28;153342.22;;;8.86;44.70
10127;BME280;13080;42.608;23.362;2023-04-28T08:39:55;153368.13;;;8.96;44.70
10127;BME280;13080;42.608;23.362;2023-04-28T08:42:27;153353.88;;;8.90;45.04
10127;BME280;13080;42.608;23.362;2023-04-28T08:44:55;153388.91;;;9.04;44.94
10127;BME280;13080;42.608;23.362;2023-04-28T08:47:28;153448.56;;;9.28;46.56
10127;BME280;13080;42.608;23.362;2023-04-28T08:50:02;153444.69;;;9.26;43.19
10127;BME280;13080;42.608;23.362;2023-04-28T08:52:29;153448.56;;;9.28;44.18
10127;BME280;13080;42.608;23.362;2023-04-28T08:54:57;153477.09;;;9.39;46.23
10127;BME280;13080;42.608;23.362;2023-04-28T08:57:25;153525.16;;;9.58;45.91
10127;BME280;13080;42.608;23.362;2023-04-28T08:59:52;153587.44;;;9.83;44.46
10127;BME280;13080;42.608;23.362;2023-04-28T09:02:19;153621.19;;;9.96;44.13
10127;BME280;13080;42.608;23.362;2023-04-28T09:04:46;153610.81;;;9.92;45.17
10127;BME280;13080;42.608;23.362;2023-04-28T09:07:14;153579.63;;;9.79;42.79
10127;BME280;13080;42.608;23.362;2023-04-28T09:09:41;153596.50;;;9.86;43.53
10127;BME280;13080;42.608;23.362;2023-04-28T09:12:10;153579.63;;;9.79;43.19
10127;BME280;13080;42.608;23.362;2023-04-28T09:14:37;153592.66;;;9.85;42.41
10127;BME280;13080;42.608;23.362;2023-04-28T09:17:09;153551.06;;;9.68;42.09
10127;BME280;13080;42.608;23.362;2023-04-28T09:19:37;153538.13;;;9.63;43.02
10127;BME280;13080;42.608;23.362;2023-04-28T09:22:07;153532.91;;;9.61;42.97
10127;BME280;13080;42.608;23.362;2023-04-28T09:24:36;153575.78;;;9.78;46.55
10127;BME280;13080;42.608;23.362;2023-04-28T09:27:05;153632.88;;;10.01;42.72
10127;BME280;13080;42.608;23.362;2023-04-28T09:29:35;153665.34;;;10.13;42.68
10127;BME280;13080;42.608;23.362;2023-04-28T09:32:15;153721.19;;;10.35;46.33
10127;BME280;13080;42.608;23.362;2023-04-28T09:34:43;153710.84;;;10.31;43.63
10127;BME280;13080;42.608;23.362;2023-04-28T09:37:14;153743.28;;;10.44;41.75
10127;BME280;13080;42.608;23.362;2023-04-28T09:39:43;153756.31;;;10.49;42.24
10127;BME280;13080;42.608;23.362;2023-04-28T09:42:29;153748.47;;;10.46;40.52
10127;BME280;13080;42.608;23.362;2023-04-28T09:44:57;153709.50;;;10.31;41.61
10127;BME280;13080;42.608;23.362;2023-04-28T09:47:23;153709.50;;;10.31;43.73
10127;BME280;13080;42.608;23.362;2023-04-28T09:49:54;153738.06;;;10.42;42.85
10127;BME280;13080;42.608;23.362;2023-04-28T09:52:21;153786.16;;;10.61;43.33
10127;BME280;13080;42.608;23.362;2023-04-28T09:54:52;153788.72;;;10.62;40.21
10127;BME280;13080;42.608;23.362;2023-04-28T09:57:19;153756.31;;;10.49;42.72
10127;BME280;13080;42.608;23.362;2023-04-28T09:59:47;153804.34;;;10.68;41.50
10127;BME280;13080;42.608;23.362;2023-04-28T10:02:16;153788.72;;;10.62;41.06
10127;BME280;13080;42.608;23.362;2023-04-28T10:04:44;153739.41;;;10.43;41.37
10127;BME280;13080;42.608;23.362;2023-04-28T10:07:11;153774.47;;;10.56;43.19
10127;BME280;13080;42.608;23.362;2023-04-28T10:09:38;153809.53;;;10.70;43.77
10127;BME280;13080;42.608;23.362;2023-04-28T10:12:10;153823.78;;;10.76;40.19
10127;BME280;13080;42.608;23.362;2023-04-28T10:14:37;153829.00;;;10.78;42.86
10127;BME280;13080;42.608;23.362;2023-04-28T10:17:03;153796.56;;;10.65;39.98
10127;BME280;13080;42.608;23.362;2023-04-28T10:19:31;153774.47;;;10.56;39.53
10127;BME280;13080;42.608;23.362;2023-04-28T10:22:09;153771.84;;;10.55;39.63
10127;BME280;13080;42.608;23.362;2023-04-28T10:24:58;153779.66;;;10.58;41.21
10127;BME280;13080;42.608;23.362;2023-04-28T10:27:33;153779.66;;;10.58;38.86
10127;BME280;13080;42.608;23.362;2023-04-28T10:30:09;153790.03;;;10.63;41.12
10127;BME280;13080;42.608;23.362;2023-04-28T10:32:37;153792.66;;;10.64;40.08
10127;BME280;13080;42.608;23.362;2023-04-28T10:35:41;153774.47;;;10.56;39.58
10127;BME280;13080;42.608;23.362;2023-04-28T10:38:09;153738.06;;;10.42;42.14
10127;BME280;13080;42.608;23.362;2023-04-28T10:40:38;153791.34;;;10.63;40.62
10127;BME280;13080;42.608;23.362;2023-04-28T10:43:07;153839.41;;;10.82;42.65
10127;BME280;13080;42.608;23.362;2023-04-28T10:46:07;153858.91;;;10.90;40.68
10127;BME280;13080;42.608;23.362;2023-04-28T10:48:56;153901.75;;;11.07;41.60
10127;BME280;13080;42.608;23.362;2023-04-28T10:51:30;153892.63;;;11.03;39.96
10127;BME280;13080;42.608;23.362;2023-04-28T10:54:16;153844.59;;;10.84;41.22
10127;BME280;13080;42.608;23.362;2023-04-28T10:57:18;153874.47;;;10.96;39.76
10127;BME280;13080;42.608;23.362;2023-04-28T10:59:47;153903.03;;;11.07;39.52
10127;BME280;13080;42.608;23.362;2023-04-28T11:02:37;153917.34;;;11.13;39.94
10127;BME280;13080;42.608;23.362;2023-04-28T11:05:16;153943.31;;;11.23;39.60
10127;BME280;13080;42.608;23.362;2023-04-28T11:11:13;153988.81;;;11.41;38.39
10127;BME280;13080;42.608;23.362;2023-04-28T11:13:40;153953.72;;;11.27;38.07
10127;BME280;13080;42.608;23.362;2023-04-28T11:16:09;153964.13;;;11.31;40.86
10127;BME280;13080;42.608;23.362;2023-04-28T11:18:56;153962.84;;;11.31;37.22
10127;BME280;13080;42.608;23.362;2023-04-28T11:21:25;154012.25;;;11.50;39.24
10127;BME280;13080;42.608;23.362;2023-04-28T11:23:53;154004.41;;;11.47;39.29
10127;BME280;13080;42.608;23.362;2023-04-28T11:26:20;154017.41;;;11.52;39.18
10127;BME280;13080;42.608;23.362;2023-04-28T11:28:52;154053.81;;;11.67;39.42
10127;BME280;13080;42.608;23.362;2023-04-28T11:31:22;154047.31;;;11.64;36.91
10127;BME280;13080;42.608;23.362;2023-04-28T11:33:59;154065.50;;;11.71;36.36
10127;BME280;13080;42.608;23.362;2023-04-28T11:36:31;154117.56;;;11.92;38.30
10127;BME280;13080;42.608;23.362;2023-04-28T11:39:00;154144.88;;;12.02;36.30
10127;BME280;13080;42.608;23.362;2023-04-28T11:41:29;154134.47;;;11.98;37.26
10127;BME280;13080;42.608;23.362;2023-04-28T11:43:56;154160.47;;;12.09;38.22
10127;BME280;13080;42.608;23.362;2023-04-28T11:46:25;154107.16;;;11.88;36.38
10127;BME280;13080;42.608;23.362;2023-04-28T11:49:02;154079.78;;;11.77;36.01
10127;BME280;13080;42.608;23.362;2023-04-28T11:51:31;154081.13;;;11.77;37.11
10127;BME280;13080;42.608;23.362;2023-04-28T11:53:58;154104.53;;;11.86;36.24
10127;BME280;13080;42.608;23.362;2023-04-28T11:56:25;154122.75;;;11.94;35.64
10127;BME280;13080;42.608;23.362;2023-04-28T11:59:02;154143.59;;;12.02;36.23
10127;BME280;13080;42.608;23.362;2023-04-28T12:01:31;154178.69;;;12.16;35.77
10127;BME280;13080;42.608;23.362;2023-04-28T12:03:59;154217.69;;;12.31;35.21
10127;BME280;13080;42.608;23.362;2023-04-28T12:06:26;154216.34;;;12.31;34.75
10127;BME280;13080;42.608;23.362;2023-04-28T12:08:54;154226.78;;;12.35;36.75
10127;BME280;13080;42.608;23.362;2023-04-28T12:11:22;154234.59;;;12.38;34.66
10127;BME280;13080;42.608;23.362;2023-04-28T12:14:07;154225.47;;;12.34;33.98
10127;BME280;13080;42.608;23.362;2023-04-28T12:16:43;154206.00;;;12.26;35.73
10127;BME280;13080;42.608;23.362;2023-04-28T12:19:11;154235.88;;;12.38;33.25
10127;BME280;13080;42.608;23.362;2023-04-28T12:21:39;154198.16;;;12.23;35.18
10127;BME280;13080;42.608;23.362;2023-04-28T12:24:18;154194.28;;;12.22;33.30
10127;BME280;13080;42.608;23.362;2023-04-28T12:26:46;154192.94;;;12.21;32.48
10127;BME280;13080;42.608;23.362;2023-04-28T12:29:35;154222.91;;;12.33;33.15
10127;BME280;13080;42.608;23.362;2023-04-28T12:32:05;154185.16;;;12.18;32.33
10127;BME280;13080;42.608;23.362;2023-04-28T12:34:32;154172.19;;;12.13;32.36
10127;BME280;13080;42.608;23.362;2023-04-28T12:37:00;154179.97;;;12.16;34.66
10127;BME280;13080;42.608;23.362;2023-04-28T12:39:27;154216.34;;;12.31;32.99
10127;BME280;13080;42.608;23.362;2023-04-28T12:41:54;154192.94;;;12.21;33.56
10127;BME280;13080;42.608;23.362;2023-04-28T12:44:23;154192.94;;;12.21;34.39
10127;BME280;13080;42.608;23.362;2023-04-28T12:46:50;154182.53;;;12.17;34.14
10127;BME280;13080;42.608;23.362;2023-04-28T12:49:19;154206.00;;;12.26;37.91
10127;BME280;13080;42.608;23.362;2023-04-28T12:51:46;154220.28;;;12.32;34.27
10127;BME280;13080;42.608;23.362;2023-04-28T12:54:12;154225.47;;;12.34;35.53
10127;BME280;13080;42.608;23.362;2023-04-28T12:56:39;154264.50;;;12.50;37.35
10127;BME280;13080;42.608;23.362;2023-04-28T12:59:06;154290.50;;;12.60;36.38